»·PEaware :: N9229P KAPA-KGXY

N9229P :: KAPA-KGXY

FLIGHT INFORMATION

Flight Status: Arrived
Operator: Privately registered:
United States
More flights under this callsign
Pilot: James W. (24810)
Aircraft: Unknown
(PA-2)
More flights by this aircraft type
Origin: KAPA Centennial
United States
Destination: KGXY Greeley-Weld Co
United States
More flights between these airports :: More routes between these airports
Route: +DEN1 BJC IBIXY
File this flight plan on PilotEdge
Remarks:
Altitude:
(Current/Filed)
9,000ft
Speed:
(Current/Filed)
140kts
Departed: 02-Jun-19 11:07 AM
Arrived: 02-Jun-19 11:41 AM
Distance/Time
Traveled:
52nm/0:34
Distance/Time
To Go:
Arrived

Flight Plot

Page will automatically refresh every two minutes.

Flight plan parsing failed; only flown route is shown


Map Options




Map Legend


Flown Route
Filed Route
Departure Airport
Arrival Airport
Navaid (VOR, NDB)
Fix

Horizontal Profiles

Position Reports

Time Latitude Longitude Heading Altitude Ground
Speed
02-Jun-19 10:49 39.583026 -104.848973 269 5886ft 0kts
02-Jun-19 10:50 39.583026 -104.848973 269 5886ft 0kts
02-Jun-19 10:51 39.583026 -104.848973 269 5886ft 0kts
02-Jun-19 10:52 39.583026 -104.848973 269 5886ft 0kts
02-Jun-19 10:53 39.583026 -104.848973 269 5886ft 0kts
02-Jun-19 10:54 39.583026 -104.848973 269 5886ft 0kts
02-Jun-19 10:55 39.583026 -104.848973 269 5886ft 0kts
02-Jun-19 10:56 39.583026 -104.848973 269 5886ft 0kts
02-Jun-19 10:57 39.583026 -104.848973 269 5886ft 0kts
02-Jun-19 10:58 39.583026 -104.848973 269 5886ft 0kts
02-Jun-19 10:58 39.583026 -104.848973 269 5886ft 0kts
02-Jun-19 11:00 39.583026 -104.848973 269 5886ft 0kts
02-Jun-19 11:01 39.583026 -104.848973 269 5886ft 0kts
02-Jun-19 11:01 39.583026 -104.848973 269 5886ft 0kts
02-Jun-19 11:02 39.583526 -104.849384 2 5886ft 0kts
02-Jun-19 11:04 39.583923 -104.849667 309 5886ft 6kts
02-Jun-19 11:04 39.584106 -104.850095 285 5886ft 0kts
02-Jun-19 11:05 39.584118 -104.850695 267 5886ft 9kts
02-Jun-19 11:06 39.568188 -104.850909 178 6054ft 125kts
02-Jun-19 11:07 39.532135 -104.849390 179 7272ft 133kts
02-Jun-19 11:08 39.492778 -104.843752 181 8054ft 151kts
02-Jun-19 11:09 39.477441 -104.880700 292 8339ft 169kts
02-Jun-19 11:10 39.516009 -104.893871 10 8808ft 166kts
02-Jun-19 11:11 39.559576 -104.899648 331 9213ft 165kts
02-Jun-19 11:12 39.600526 -104.926856 337 9615ft 165kts
02-Jun-19 11:13 39.642234 -104.949922 336 10001ft 163kts
02-Jun-19 11:14 39.685409 -104.974753 335 10025ft 173kts
02-Jun-19 11:15 39.729362 -105.000270 335 10025ft 175kts
02-Jun-19 11:16 39.771909 -105.031246 328 10025ft 175kts
02-Jun-19 11:17 39.813875 -105.063841 329 10025ft 175kts
02-Jun-19 11:18 39.853535 -105.093980 329 10023ft 151kts
02-Jun-19 11:19 39.889705 -105.121598 329 10026ft 158kts
02-Jun-19 11:20 39.932277 -105.133450 14 10026ft 169kts
02-Jun-19 11:21 39.978181 -105.119632 12 10025ft 170kts
02-Jun-19 11:22 40.024482 -105.105991 12 10025ft 170kts
02-Jun-19 11:23 40.070721 -105.092197 12 10024ft 170kts
02-Jun-19 11:24 40.116937 -105.078321 12 10025ft 170kts
02-Jun-19 11:25 40.163033 -105.064532 12 10025ft 170kts
02-Jun-19 11:26 40.208996 -105.050766 12 10025ft 170kts
02-Jun-19 11:27 40.255026 -105.036961 12 10025ft 170kts
02-Jun-19 11:28 40.301016 -105.023148 12 10025ft 170kts
02-Jun-19 11:29 40.346994 -105.009320 12 10025ft 169kts
02-Jun-19 11:30 40.379335 -104.972367 78 9874ft 167kts
02-Jun-19 11:31 40.390644 -104.913351 60 9357ft 168kts
02-Jun-19 11:32 40.425802 -104.886770 350 8784ft 167kts
02-Jun-19 11:33 40.469142 -104.876582 54 8097ft 172kts
02-Jun-19 11:34 40.467793 -104.822911 104 7288ft 117kts
02-Jun-19 11:35 40.460606 -104.788581 104 6771ft 94kts
02-Jun-19 11:36 40.452807 -104.751434 105 6337ft 105kts
02-Jun-19 11:37 40.446602 -104.717464 104 6037ft 95kts
02-Jun-19 11:38 40.438611 -104.683181 105 5370ft 98kts
02-Jun-19 11:39 40.431524 -104.649658 104 4770ft 91kts
02-Jun-19 11:40 40.428188 -104.637274 237 4697ft 3kts
02-Jun-19 11:41 40.426883 -104.637129 109 4697ft 0kts

Navigation Log

Ident Type
Flight plan parsing failed, navigation log unavailable